createdAt,value
2022-11-25T00:01:30.554Z,101080.97
2022-11-25T00:03:58.828Z,101086.34
2022-11-25T00:06:30.962Z,101081.50
2022-11-25T00:09:04.164Z,101077.72
2022-11-25T00:11:34.063Z,101071.81
2022-11-25T00:14:01.512Z,101082.88
2022-11-25T00:16:28.932Z,101086.91
2022-11-25T00:18:57.459Z,101080.13
2022-11-25T00:21:27.143Z,101079.88
2022-11-25T00:23:56.872Z,101073.97
2022-11-25T00:26:25.528Z,101071.25
2022-11-25T00:28:53.727Z,101073.69
2022-11-25T00:31:23.452Z,101074.75
2022-11-25T00:33:51.575Z,101075.34
2022-11-25T00:36:36.386Z,101066.38
2022-11-25T00:39:09.463Z,101068.25
2022-11-25T00:41:55.599Z,101068.00
2022-11-25T00:44:41.661Z,101062.13
2022-11-25T00:47:16.640Z,101067.25
2022-11-25T00:49:46.433Z,101060.28
2022-11-25T00:52:18.287Z,101060.56
2022-11-25T00:54:47.624Z,101064.06
2022-11-25T00:57:17.170Z,101072.72
2022-11-25T00:59:44.558Z,101078.47
2022-11-25T01:02:13.438Z,101078.22
2022-11-25T01:04:41.275Z,101072.56
2022-11-25T01:07:08.904Z,101074.19
2022-11-25T01:09:36.481Z,101089.31
2022-11-25T01:12:07.977Z,101097.09
2022-11-25T01:14:35.645Z,101093.06
2022-11-25T01:17:03.887Z,101104.13
2022-11-25T01:19:33.621Z,101108.94
2022-11-25T01:22:01.045Z,101110.56
2022-11-25T01:24:28.515Z,101106.25
2022-11-25T01:26:56.169Z,101106.53
2022-11-25T01:29:24.219Z,101109.25
2022-11-25T01:31:57.370Z,101115.97
2022-11-25T01:34:27.035Z,101123.00
2022-11-25T01:36:58.145Z,101115.16
2022-11-25T01:39:32.048Z,101130.03
2022-11-25T01:42:00.843Z,101140.28
2022-11-25T01:44:32.841Z,101147.31
2022-11-25T01:47:03.889Z,101141.34
2022-11-25T01:49:43.235Z,101137.56
2022-11-25T01:52:13.688Z,101138.38
2022-11-25T01:54:59.856Z,101142.97
2022-11-25T01:57:39.777Z,101141.34
2022-11-25T02:00:09.796Z,101149.44
2022-11-25T02:02:50.799Z,101156.72
2022-11-25T02:05:20.954Z,101166.72
2022-11-25T02:07:51.528Z,101164.31
2022-11-25T02:10:27.028Z,101163.75
2022-11-25T02:12:54.990Z,101155.09
2022-11-25T02:15:22.902Z,101157.75
2022-11-25T02:17:50.334Z,101152.59
2022-11-25T02:20:20.915Z,101155.53
2022-11-25T02:22:54.438Z,101170.16
2022-11-25T02:25:31.321Z,101178.22
2022-11-25T02:28:06.783Z,101180.41
2022-11-25T02:30:35.483Z,101188.22
2022-11-25T02:33:05.953Z,101184.19
2022-11-25T02:35:34.753Z,101186.31
2022-11-25T02:38:07.609Z,101181.69
2022-11-25T02:40:52.848Z,101177.94
2022-11-25T02:43:20.771Z,101179.03
2022-11-25T02:46:07.201Z,101179.00
2022-11-25T02:51:27.662Z,101172.28
2022-11-25T02:53:59.138Z,101173.09
2022-11-25T02:56:31.655Z,101175.53
2022-11-25T02:58:59.437Z,101160.72
2022-11-25T03:01:29.900Z,101172.84
2022-11-25T03:03:57.977Z,101176.34
2022-11-25T03:06:28.702Z,101191.25
2022-11-25T03:08:56.771Z,101190.97
2022-11-25T03:11:45.262Z,101190.19
2022-11-25T03:14:13.250Z,101189.38
2022-11-25T03:16:40.816Z,101200.16
2022-11-25T03:19:08.667Z,101191.50
2022-11-25T03:21:38.969Z,101190.16
2022-11-25T03:24:07.074Z,101201.22
2022-11-25T03:26:34.551Z,101206.91
2022-11-25T03:29:02.103Z,101209.38
2022-11-25T03:31:31.060Z,101223.41
2022-11-25T03:33:58.559Z,101211.25
2022-11-25T03:36:25.952Z,101202.63
2022-11-25T03:38:53.334Z,101209.06
2022-11-25T03:41:20.749Z,101214.19
2022-11-25T03:43:49.100Z,101229.84
2022-11-25T03:46:16.609Z,101222.81
2022-11-25T03:48:44.410Z,101224.69
2022-11-25T03:51:15.278Z,101223.00
2022-11-25T03:53:44.069Z,101233.25
2022-11-25T03:56:11.494Z,101218.69
2022-11-25T03:58:38.844Z,101227.09
2022-11-25T04:01:07.071Z,101223.59
2022-11-25T04:03:34.700Z,101221.44
2022-11-25T04:06:02.199Z,101212.25
2022-11-25T04:08:30.903Z,101217.41
2022-11-25T04:10:59.432Z,101217.91
2022-11-25T04:13:30.445Z,101219.81
2022-11-25T04:15:58.266Z,101221.16
2022-11-25T04:18:26.571Z,101225.53
2022-11-25T04:20:56.670Z,101212.03
2022-11-25T04:23:24.372Z,101215.78
2022-11-25T04:26:00.082Z,101224.13
2022-11-25T04:28:34.423Z,101219.28
2022-11-25T04:31:06.767Z,101215.16
2022-11-25T04:33:36.170Z,101195.78
2022-11-25T04:36:03.974Z,101206.53
2022-11-25T04:38:31.641Z,101222.75
2022-11-25T04:41:02.081Z,101230.88
2022-11-25T04:43:33.245Z,101226.00
2022-11-25T04:46:13.871Z,101231.72
2022-11-25T04:48:44.725Z,101234.16
2022-11-25T04:51:12.153Z,101233.06
2022-11-25T04:53:40.282Z,101225.78
2022-11-25T04:56:14.292Z,101221.75
2022-11-25T04:59:02.595Z,101201.00
2022-11-25T05:01:31.027Z,101212.56
2022-11-25T05:04:08.564Z,101208.75
2022-11-25T05:06:37.540Z,101189.03
2022-11-25T05:09:06.126Z,101185.22
2022-11-25T05:11:36.371Z,101199.00
2022-11-25T05:14:03.942Z,101196.84
2022-11-25T05:16:34.271Z,101196.03
2022-11-25T05:19:02.420Z,101185.00
2022-11-25T05:21:29.869Z,101187.72
2022-11-25T05:23:57.255Z,101195.81
2022-11-25T05:26:28.394Z,101215.22
2022-11-25T05:28:58.797Z,101219.53
2022-11-25T05:31:29.696Z,101215.75
2022-11-25T05:34:00.860Z,101211.19
2022-11-25T05:36:29.149Z,101193.13
2022-11-25T05:38:57.610Z,101203.91
2022-11-25T05:41:36.140Z,101212.56
2022-11-25T05:44:05.331Z,101198.75
2022-11-25T05:46:34.179Z,101199.84
2022-11-25T05:49:01.656Z,101198.75
2022-11-25T05:51:30.882Z,101202.81
2022-11-25T05:54:00.279Z,101204.44
2022-11-25T05:56:30.783Z,101206.34
2022-11-25T05:59:21.210Z,101195.00
2022-11-25T06:02:08.876Z,101198.56
2022-11-25T06:04:36.723Z,101199.94
2022-11-25T06:07:04.463Z,101212.34
2022-11-25T06:09:32.093Z,101223.16
2022-11-25T06:11:59.624Z,101222.88
2022-11-25T06:14:27.044Z,101233.16
2022-11-25T06:16:55.282Z,101242.03
2022-11-25T06:19:28.290Z,101233.94
2022-11-25T06:21:55.615Z,101242.34
2022-11-25T06:24:23.162Z,101227.22
2022-11-25T06:26:56.279Z,101233.94
2022-11-25T06:29:23.777Z,101240.16
2022-11-25T06:31:52.332Z,101242.31
2022-11-25T06:34:42.649Z,101239.91
2022-11-25T06:37:19.541Z,101240.16
2022-11-25T06:39:47.568Z,101245.81
2022-11-25T06:42:14.860Z,101239.31
2022-11-25T06:44:42.206Z,101245.53
2022-11-25T06:47:09.727Z,101251.19
2022-11-25T06:49:37.056Z,101267.63
2022-11-25T06:52:04.739Z,101260.59
2022-11-25T06:54:32.148Z,101261.66
2022-11-25T06:56:59.812Z,101258.94
2022-11-25T06:59:27.206Z,101268.66
2022-11-25T07:01:54.651Z,101270.81
2022-11-25T07:04:22.020Z,101282.97
2022-11-25T07:06:50.578Z,101281.34
2022-11-25T07:09:19.624Z,101286.19
2022-11-25T07:11:47.026Z,101287.28
2022-11-25T07:14:16.846Z,101291.28
2022-11-25T07:16:45.772Z,101291.81
2022-11-25T07:19:15.478Z,101288.84
2022-11-25T07:21:45.541Z,101293.44
2022-11-25T07:24:17.978Z,101281.84
2022-11-25T07:26:45.658Z,101284.56
2022-11-25T07:29:49.979Z,101281.84
2022-11-25T07:32:07.296Z,101287.75
2022-11-25T07:34:37.872Z,101286.69
2022-11-25T07:37:05.201Z,101294.50
2022-11-25T07:39:32.710Z,101293.41
2022-11-25T07:42:00.074Z,101291.25
2022-11-25T07:44:27.388Z,101287.41
2022-11-25T07:47:02.069Z,101306.25
2022-11-25T07:49:29.544Z,101292.38
2022-11-25T07:51:59.847Z,101298.53
2022-11-25T07:54:27.365Z,101299.31
2022-11-25T07:56:54.766Z,101291.41
2022-11-25T07:59:23.363Z,101299.75
2022-11-25T08:01:53.116Z,101297.81
2022-11-25T08:04:21.784Z,101296.47
2022-11-25T08:06:50.946Z,101297.78
2022-11-25T08:09:21.511Z,101286.59
2022-11-25T08:11:49.861Z,101297.09
2022-11-25T08:14:17.667Z,101294.38
2022-11-25T08:16:45.209Z,101290.28
2022-11-25T08:19:15.586Z,101301.56
2022-11-25T08:21:43.121Z,101293.34
2022-11-25T08:24:16.349Z,101307.06
2022-11-25T08:26:44.284Z,101313.53
2022-11-25T08:29:14.449Z,101315.91
2022-11-25T08:31:43.046Z,101320.69
2022-11-25T08:34:18.748Z,101319.84
2022-11-25T08:36:48.856Z,101312.09
2022-11-25T08:39:44.406Z,101311.13
2022-11-25T08:42:06.217Z,101306.47
2022-11-25T08:44:34.261Z,101303.91
2022-11-25T08:47:01.691Z,101306.56
2022-11-25T08:49:34.793Z,101319.25
2022-11-25T08:52:06.401Z,101310.78
2022-11-25T08:54:33.797Z,101299.88
2022-11-25T08:57:01.150Z,101294.53
2022-11-25T08:59:28.468Z,101303.84
2022-11-25T09:01:55.889Z,101296.38
2022-11-25T09:04:23.459Z,101301.94
2022-11-25T09:06:50.877Z,101303.09
2022-11-25T09:09:18.221Z,101306.97
2022-11-25T09:11:45.758Z,101305.31
2022-11-25T09:14:13.990Z,101305.25
2022-11-25T09:16:41.501Z,101308.00
2022-11-25T09:19:11.840Z,101297.34
2022-11-25T09:21:43.357Z,101295.53
2022-11-25T09:24:10.737Z,101302.28
2022-11-25T09:26:41.033Z,101306.84
2022-11-25T09:29:08.836Z,101309.91
2022-11-25T09:31:36.519Z,101301.00
2022-11-25T09:34:03.999Z,101299.16
2022-11-25T09:36:31.389Z,101302.50
2022-11-25T09:38:58.867Z,101307.53
2022-11-25T09:41:53.842Z,101309.53
2022-11-25T09:44:45.932Z,101299.97
2022-11-25T09:47:15.994Z,101305.00
2022-11-25T09:50:08.199Z,101295.25
2022-11-25T09:52:42.164Z,101303.09
2022-11-25T09:55:13.868Z,101306.72
2022-11-25T09:58:15.520Z,101306.59
2022-11-25T10:00:46.602Z,101303.25
2022-11-25T10:03:30.183Z,101304.16
2022-11-25T10:06:07.698Z,101304.94
2022-11-25T10:09:11.434Z,101298.88
2022-11-25T10:11:53.742Z,101298.53
2022-11-25T10:14:39.133Z,101297.59
2022-11-25T10:17:25.139Z,101291.91
2022-11-25T10:20:13.880Z,101289.59
2022-11-25T10:22:44.262Z,101291.16
2022-11-25T10:25:27.775Z,101289.31
2022-11-25T10:28:02.081Z,101289.75
2022-11-25T10:30:41.773Z,101288.69
2022-11-25T10:33:22.913Z,101288.09
2022-11-25T10:35:59.556Z,101281.66
2022-11-25T10:38:41.454Z,101276.59
2022-11-25T10:41:17.275Z,101282.16
2022-11-25T10:43:47.810Z,101277.00
2022-11-25T10:46:49.586Z,101276.13
2022-11-25T10:49:29.941Z,101268.44
2022-11-25T10:51:57.982Z,101274.28
2022-11-25T10:54:28.222Z,101273.72
2022-11-25T10:57:01.617Z,101271.06
2022-11-25T10:59:34.601Z,101283.97
2022-11-25T11:02:27.226Z,101268.41
2022-11-25T11:05:32.896Z,101271.13
2022-11-25T11:08:23.357Z,101260.38
2022-11-25T11:11:09.140Z,101265.31
2022-11-25T11:13:36.536Z,101250.72
2022-11-25T11:16:04.120Z,101251.13
2022-11-25T11:18:37.725Z,101248.41
2022-11-25T11:21:07.718Z,101243.75
2022-11-25T11:23:54.125Z,101236.44
2022-11-25T11:26:26.566Z,101232.44
2022-11-25T11:29:13.884Z,101227.06
2022-11-25T11:31:48.645Z,101225.94
2022-11-25T11:34:31.374Z,101228.41
2022-11-25T11:37:17.891Z,101232.72
2022-11-25T11:40:03.130Z,101229.22
2022-11-25T11:42:49.500Z,101229.84
2022-11-25T11:45:23.290Z,101221.03
2022-11-25T11:48:09.101Z,101224.09
2022-11-25T11:50:49.359Z,101220.56
2022-11-25T11:53:47.727Z,101215.94
2022-11-25T11:56:35.970Z,101223.94
2022-11-25T11:59:24.944Z,101226.38
2022-11-25T12:02:01.548Z,101227.34
2022-11-25T12:05:04.912Z,101231.84
2022-11-25T12:07:36.459Z,101221.38
2022-11-25T12:10:16.642Z,101216.72
2022-11-25T12:13:03.237Z,101208.72
2022-11-25T12:15:41.356Z,101204.69
2022-11-25T12:18:20.767Z,101205.31
2022-11-25T12:20:57.641Z,101212.53
2022-11-25T12:23:51.193Z,101206.28
2022-11-25T12:26:29.236Z,101195.53
2022-11-25T12:29:05.192Z,101195.06
2022-11-25T12:31:39.847Z,101205.16
2022-11-25T12:34:27.666Z,101198.41
2022-11-25T12:37:14.677Z,101215.28
2022-11-25T12:40:00.428Z,101211.25
2022-11-25T12:42:30.834Z,101201.47
2022-11-25T12:45:16.180Z,101213.50
2022-11-25T12:47:45.137Z,101211.59
2022-11-25T12:50:53.044Z,101217.81
2022-11-25T12:54:12.590Z,101207.41
2022-11-25T12:57:13.159Z,101199.19
2022-11-25T13:00:39.743Z,101201.78
2022-11-25T13:03:15.312Z,101197.44
2022-11-25T13:06:02.770Z,101204.19
2022-11-25T13:09:23.980Z,101189.72
2022-11-25T13:12:05.206Z,101189.41
2022-11-25T13:14:33.150Z,101185.56
2022-11-25T13:17:01.390Z,101194.72
2022-11-25T13:19:29.309Z,101181.88
2022-11-25T13:22:06.523Z,101193.75
2022-11-25T13:24:44.301Z,101181.56
2022-11-25T13:27:32.792Z,101184.25
2022-11-25T13:30:01.492Z,101184.94
2022-11-25T13:32:37.060Z,101191.03
2022-11-25T13:35:22.383Z,101192.31
2022-11-25T13:37:50.985Z,101197.59
2022-11-25T13:40:21.991Z,101200.97
2022-11-25T13:42:50.649Z,101203.22
2022-11-25T13:45:30.063Z,101197.91
2022-11-25T13:48:06.951Z,101196.56
2022-11-25T13:50:55.522Z,101183.75
2022-11-25T13:53:33.301Z,101189.03
2022-11-25T13:56:24.477Z,101190.28
2022-11-25T13:59:10.247Z,101189.94
2022-11-25T14:01:40.695Z,101192.63
2022-11-25T14:04:10.537Z,101195.78
2022-11-25T14:07:02.216Z,101199.34
2022-11-25T14:09:45.367Z,101209.88
2022-11-25T14:12:21.641Z,101213.25
2022-11-25T14:14:56.216Z,101205.88
2022-11-25T14:17:30.881Z,101210.38
2022-11-25T14:20:35.402Z,101210.81
2022-11-25T14:23:22.201Z,101214.59
2022-11-25T14:25:56.110Z,101213.66
2022-11-25T14:29:08.798Z,101201.91
2022-11-25T14:31:38.268Z,101198.19
2022-11-25T14:34:22.240Z,101191.63
2022-11-25T14:36:54.626Z,101194.78
2022-11-25T14:39:48.176Z,101200.53
2022-11-25T14:42:19.509Z,101201.50
2022-11-25T14:44:52.626Z,101214.84
2022-11-25T14:47:27.989Z,101213.13
2022-11-25T14:52:50.119Z,101216.56
2022-11-25T14:55:28.640Z,101214.66
2022-11-25T14:57:56.293Z,101221.63
2022-11-25T15:00:24.248Z,101215.28
2022-11-25T15:02:57.622Z,101216.53
2022-11-25T15:05:27.287Z,101217.56
2022-11-25T15:08:08.284Z,101221.84
2022-11-25T15:10:43.945Z,101213.31
2022-11-25T15:13:34.369Z,101218.78
2022-11-25T15:16:07.067Z,101214.28
2022-11-25T15:18:35.680Z,101219.53
2022-11-25T15:21:04.335Z,101224.59
2022-11-25T15:23:37.114Z,101225.59
2022-11-25T15:26:15.177Z,101218.19
2022-11-25T15:28:42.698Z,101224.63
2022-11-25T15:31:16.508Z,101223.94
2022-11-25T15:33:44.779Z,101225.16
2022-11-25T15:36:12.237Z,101228.00
2022-11-25T15:38:46.632Z,101221.25
2022-11-25T15:41:35.981Z,101215.41
2022-11-25T15:44:05.571Z,101226.09
2022-11-25T15:46:37.970Z,101233.72
2022-11-25T15:49:08.047Z,101226.41
2022-11-25T15:51:41.688Z,101242.59
2022-11-25T15:54:51.876Z,101242.19
2022-11-25T15:57:23.170Z,101242.91
2022-11-25T15:59:56.090Z,101252.44
2022-11-25T16:02:41.560Z,101257.69
2022-11-25T16:05:15.163Z,101253.94
2022-11-25T16:07:52.016Z,101264.91
2022-11-25T16:10:20.844Z,101266.41
2022-11-25T16:13:23.404Z,101262.97
2022-11-25T16:16:08.180Z,101259.31
2022-11-25T16:18:40.659Z,101267.19
2022-11-25T16:21:21.963Z,101277.03
2022-11-25T16:23:58.061Z,101270.88
2022-11-25T16:26:30.049Z,101282.91
2022-11-25T16:29:02.290Z,101272.03
2022-11-25T16:31:29.676Z,101272.69
2022-11-25T16:34:09.691Z,101273.16
2022-11-25T16:36:37.069Z,101274.28
2022-11-25T16:39:04.480Z,101272.97
2022-11-25T16:41:31.909Z,101264.38
2022-11-25T16:44:00.864Z,101270.91
2022-11-25T16:46:30.272Z,101271.22
2022-11-25T16:48:57.713Z,101275.84
2022-11-25T16:51:25.858Z,101273.63
2022-11-25T16:53:53.304Z,101278.97
2022-11-25T16:56:29.697Z,101278.97
2022-11-25T16:59:00.774Z,101268.13
2022-11-25T17:01:30.052Z,101271.22
2022-11-25T17:03:57.661Z,101265.78
2022-11-25T17:06:28.402Z,101266.75
2022-11-25T17:08:55.821Z,101266.75
2022-11-25T17:14:00.788Z,101264.22
2022-11-25T17:14:35.764Z,101265.19
2022-11-25T17:17:04.511Z,101264.69
2022-11-25T17:19:32.013Z,101267.09
2022-11-25T17:21:59.461Z,101265.19
2022-11-25T17:24:27.328Z,101269.25
2022-11-25T17:26:57.116Z,101276.81
2022-11-25T17:29:39.854Z,101273.16
2022-11-25T17:32:12.613Z,101274.47
2022-11-25T17:34:40.300Z,101274.47
2022-11-25T17:37:14.256Z,101281.66
2022-11-25T17:39:42.252Z,101285.09
2022-11-25T17:42:15.819Z,101290.59
2022-11-25T17:44:49.879Z,101295.28
2022-11-25T17:47:20.392Z,101288.50
2022-11-25T17:49:49.580Z,101308.47
2022-11-25T17:52:17.067Z,101305.50
2022-11-25T17:54:44.484Z,101311.06
2022-11-25T17:57:15.600Z,101308.09
2022-11-25T17:59:46.328Z,101310.19
2022-11-25T18:02:18.965Z,101302.19
2022-11-25T18:04:46.562Z,101311.06
2022-11-25T18:07:16.961Z,101310.06
2022-11-25T18:09:45.329Z,101313.63
2022-11-25T18:12:26.727Z,101316.84
2022-11-25T18:14:55.840Z,101317.13
2022-11-25T18:17:23.195Z,101324.72
2022-11-25T18:19:55.069Z,101314.50
2022-11-25T18:22:24.165Z,101316.16
2022-11-25T18:24:52.627Z,101318.00
2022-11-25T18:27:27.035Z,101309.41
2022-11-25T18:29:55.795Z,101322.94
2022-11-25T18:32:25.486Z,101329.69
2022-11-25T18:34:53.102Z,101327.28
2022-11-25T18:37:20.505Z,101333.28
2022-11-25T18:39:47.882Z,101330.09
2022-11-25T18:42:27.455Z,101335.53
2022-11-25T18:44:56.112Z,101333.69
2022-11-25T18:47:23.651Z,101342.38
2022-11-25T18:49:55.893Z,101339.72
2022-11-25T18:52:24.924Z,101352.16
2022-11-25T18:54:52.463Z,101359.22
2022-11-25T18:57:20.049Z,101354.06
2022-11-25T18:59:55.964Z,101348.72
2022-11-25T19:02:35.330Z,101346.81
2022-11-25T19:05:06.505Z,101359.88
2022-11-25T19:07:34.003Z,101364.75
2022-11-25T19:10:01.390Z,101356.91
2022-11-25T19:12:28.761Z,101361.53
2022-11-25T19:14:57.310Z,101346.66
2022-11-25T19:17:26.109Z,101355.28
2022-11-25T19:19:53.488Z,101363.72
2022-11-25T19:22:22.744Z,101351.56
2022-11-25T19:24:52.330Z,101358.56
2022-11-25T19:27:23.485Z,101360.25
2022-11-25T19:29:52.707Z,101354.28
2022-11-25T19:32:26.348Z,101351.81
2022-11-25T19:35:00.904Z,101353.44
2022-11-25T19:37:30.234Z,101353.22
2022-11-25T19:39:57.826Z,101343.53
2022-11-25T19:42:25.787Z,101359.78
2022-11-25T19:44:53.106Z,101356.56
2022-11-25T19:47:23.377Z,101366.84
2022-11-25T19:49:57.187Z,101366.88
2022-11-25T19:52:37.870Z,101369.59
2022-11-25T19:55:17.613Z,101373.38
2022-11-25T19:57:46.327Z,101369.09
2022-11-25T20:00:15.663Z,101375.06
2022-11-25T20:02:43.912Z,101387.81
2022-11-25T20:05:17.804Z,101387.03
2022-11-25T20:07:45.410Z,101387.56
2022-11-25T20:10:19.989Z,101392.13
2022-11-25T20:12:47.997Z,101400.28
2022-11-25T20:15:15.464Z,101398.41
2022-11-25T20:17:46.929Z,101397.34
2022-11-25T20:20:44.077Z,101396.25
2022-11-25T20:23:44.722Z,101398.69
2022-11-25T20:26:26.868Z,101394.31
2022-11-25T20:28:54.222Z,101389.47
2022-11-25T20:31:22.191Z,101395.97
2022-11-25T20:33:50.310Z,101391.31
2022-11-25T20:36:26.285Z,101388.13
2022-11-25T20:38:54.800Z,101391.13
2022-11-25T20:41:27.695Z,101397.09
2022-11-25T20:43:56.451Z,101394.13
2022-11-25T20:46:29.997Z,101397.88
2022-11-25T20:49:00.415Z,101400.91
2022-11-25T20:51:28.478Z,101406.03
2022-11-25T20:53:58.031Z,101414.94
2022-11-25T20:56:27.377Z,101413.88
2022-11-25T20:58:57.004Z,101414.16
2022-11-25T21:01:25.159Z,101420.06
2022-11-25T21:03:52.841Z,101421.97
2022-11-25T21:06:29.432Z,101426.84
2022-11-25T21:08:59.729Z,101427.94
2022-11-25T21:11:28.119Z,101435.47
2022-11-25T21:13:55.424Z,101443.84
2022-11-25T21:16:23.008Z,101429.28
2022-11-25T21:18:50.312Z,101432.81
2022-11-25T21:21:25.780Z,101418.81
2022-11-25T21:23:53.133Z,101414.63
2022-11-25T21:26:23.550Z,101410.59
2022-11-25T21:28:53.021Z,101407.34
2022-11-25T21:31:25.202Z,101406.34
2022-11-25T21:33:57.895Z,101409.53
2022-11-25T21:36:30.835Z,101418.50
2022-11-25T21:39:10.077Z,101412.28
2022-11-25T21:41:40.887Z,101421.50
2022-11-25T21:44:10.371Z,101438.00
2022-11-25T21:46:37.791Z,101436.38
2022-11-25T21:49:10.963Z,101446.19
2022-11-25T21:51:38.253Z,101449.97
2022-11-25T21:54:05.640Z,101455.38
2022-11-25T21:56:34.576Z,101451.84
2022-11-25T21:59:06.585Z,101462.94
2022-11-25T22:01:33.930Z,101466.16
2022-11-25T22:04:01.366Z,101461.53
2022-11-25T22:06:30.552Z,101455.34
2022-11-25T22:08:58.242Z,101454.81
2022-11-25T22:11:35.445Z,101449.97
2022-11-25T22:14:07.842Z,101446.19
2022-11-25T22:16:36.723Z,101452.66
2022-11-25T22:19:04.224Z,101458.66
2022-11-25T22:21:31.708Z,101461.59
2022-11-25T22:23:59.020Z,101456.47
2022-11-25T22:26:34.200Z,101468.06
2022-11-25T22:29:02.339Z,101468.06
2022-11-25T22:31:29.920Z,101459.38
2022-11-25T22:33:57.306Z,101461.00
2022-11-25T22:36:35.962Z,101465.88
2022-11-25T22:39:20.549Z,101469.41
2022-11-25T22:41:54.349Z,101470.22
2022-11-25T22:44:28.692Z,101478.03
2022-11-25T22:46:56.103Z,101485.06
2022-11-25T22:49:26.419Z,101485.91
2022-11-25T22:51:54.545Z,101483.19
2022-11-25T22:54:25.157Z,101472.13
2022-11-25T22:56:52.633Z,101478.06
2022-11-25T22:59:19.997Z,101470.22
2022-11-25T23:01:47.658Z,101469.09
2022-11-25T23:04:20.235Z,101463.41
2022-11-25T23:06:48.099Z,101460.97
2022-11-25T23:09:19.759Z,101463.16
2022-11-25T23:11:47.833Z,101457.97
2022-11-25T23:14:15.474Z,101461.78
2022-11-25T23:16:43.182Z,101463.72
2022-11-25T23:19:16.842Z,101461.03
2022-11-25T23:21:45.715Z,101463.44
2022-11-25T23:24:16.493Z,101467.22
2022-11-25T23:26:44.166Z,101465.34
2022-11-25T23:29:11.575Z,101456.13
2022-11-25T23:31:39.838Z,101464.53
2022-11-25T23:34:08.139Z,101465.34
2022-11-25T23:36:46.106Z,101468.84
2022-11-25T23:39:21.449Z,101471.03
2022-11-25T23:41:49.641Z,101466.41
2022-11-25T23:44:24.621Z,101462.88
2022-11-25T23:46:54.665Z,101467.22
2022-11-25T23:49:28.790Z,101462.34
2022-11-25T23:52:02.135Z,101461.53
2022-11-25T23:54:40.579Z,101468.00
2022-11-25T23:57:30.582Z,101471.00
2022-11-25T23:59:58.307Z,101467.19
